YPTN/KTR METAR and TAF weather

Enter ICAO airport designator
Station Type Date Time Source
YPTN METAR 2019/10/15 04:00 UTC NOAA

YPTN 150400Z AUTO 12006KT 030V170 9999 // NCD 38/03 Q1010


Station Type Date Time Source
YPTN Decoded METAR 2019/10/15 04:00 UTC NOAA

Tindal / Katherine, Australia (YPTN) 14-26S 132-16E 109M
Oct 15, 2019 - 12:00 AM EDT / 2019.10.15 0400 UTC
Wind: from the ESE (120 degrees) at 7 MPH (6 KT) (direction variable):0
Visibility: greater than 7 mile(s):0
Temperature: 100 F (38 C)
Dew Point: 37 F (3 C)
Relative Humidity: 11%
Pressure (altimeter): 29.83 in. Hg (1010 hPa)
ob: YPTN 150400Z AUTO 12006KT 030V170 9999 // NCD 38/03 Q1010
cycle: 4

Station Type Date Time Source
YPTN TAF 2019/10/14 18:33 UTC NOAA

TAF YPTN 141719Z 1418/1518 35005KT CAVOK
FM150300 07010KT CAVOK
FM151500 35005KT CAVOK

Example: see airport list